Time;durP1;ratioP1;P1;durP2;ratioP2;P2;SDS_P1;SDS_P2;PMS_P1;PMS_P2;Temp;Humidity;BMP_temperature;BMP_pressure;BME280_temperature;BME280_humidity;BME280_pressure;Samples;Min_cycle;Max_cycle;Signal;HPM_P1;HPM_P2
2023/03/26 00:01:55;;;;;;;;;;;7.60;99.90;;;;;;5062264;28;19920;-75
2023/03/26 00:04:24;;;;;;;;;;;7.60;99.90;;;;;;4985346;28;207477;-74
2023/03/26 00:06:50;;;;;;;;;;;7.60;99.90;;;;;;5068592;28;19921;-74
2023/03/26 00:09:17;;;;;;;;;;;7.60;99.90;;;;;;5002672;28;209523;-74
2023/03/26 00:11:44;;;;;;;;;;;7.60;99.90;;;;;;5047300;28;19920;-74
2023/03/26 00:14:12;;;;;;;;;;;7.60;99.90;;;;;;5006258;28;206855;-74
2023/03/26 00:16:39;;;;;;;;;;;7.50;99.90;;;;;;5049199;28;19929;-75
2023/03/26 00:19:04;;;;;;;;;;;7.40;99.90;;;;;;5009769;28;192997;-75
2023/03/26 00:21:30;;;;;;;;;;;7.40;99.90;;;;;;5057468;28;19928;-74
2023/03/26 00:23:58;;;;;;;;;;;7.40;99.90;;;;;;4999133;28;211979;-74
2023/03/26 00:26:25;;;;;;;;;;;7.40;99.90;;;;;;5065525;28;19920;-75
2023/03/26 00:28:51;;;;;;;;;;;7.50;99.90;;;;;;4997076;28;234361;-74
2023/03/26 00:31:17;;;;;;;;;;;7.50;99.90;;;;;;5039058;28;19924;-74
2023/03/26 00:33:43;;;;;;;;;;;7.40;99.90;;;;;;5025471;28;208391;-74
2023/03/26 00:36:10;;;;;;;;;;;7.50;99.90;;;;;;5015350;28;207375;-75
2023/03/26 00:38:37;;;;;;;;;;;7.50;99.90;;;;;;5060533;28;19924;-75
2023/03/26 00:41:04;;;;;;;;;;;7.50;99.90;;;;;;5026095;28;135554;-75
2023/03/26 00:43:31;;;;;;;;;;;7.50;99.90;;;;;;5054383;28;19936;-75
2023/03/26 00:45:57;;;;;;;;;;;7.50;99.90;;;;;;4984033;28;209881;-74
2023/03/26 00:48:26;;;;;;;;;;;7.50;99.90;;;;;;5056995;28;19927;-74
2023/03/26 00:50:52;;;;;;;;;;;7.50;99.90;;;;;;5022568;28;206487;-75
2023/03/26 00:53:18;;;;;;;;;;;7.50;99.90;;;;;;5057875;28;19921;-75
2023/03/26 00:55:45;;;;;;;;;;;7.50;99.90;;;;;;5004089;28;208160;-75
2023/03/26 00:58:12;;;;;;;;;;;7.50;99.90;;;;;;5072480;28;19928;-75
2023/03/26 01:00:42;;;;;;;;;;;7.50;99.90;;;;;;5030092;28;163297;-75
2023/03/26 01:03:12;;;;;;;;;;;7.50;99.90;;;;;;5053510;28;19932;-74
2023/03/26 01:05:47;;;;;;;;;;;7.40;99.90;;;;;;5007000;28;207714;-74
2023/03/26 01:08:18;;;;;;;;;;;7.50;99.90;;;;;;5067947;28;19951;-74
2023/03/26 01:10:49;;;;;;;;;;;7.40;99.90;;;;;;5000015;28;215766;-74
2023/03/26 01:13:20;;;;;;;;;;;7.40;99.90;;;;;;5041093;28;19944;-74
2023/03/26 01:15:49;;;;;;;;;;;7.40;99.90;;;;;;4998498;28;207467;-74
2023/03/26 01:18:25;;;;;;;;;;;7.40;99.90;;;;;;5059829;28;19924;-74
2023/03/26 01:20:57;;;;;;;;;;;7.40;99.90;;;;;;4971450;28;212684;-75
2023/03/26 01:23:27;;;;;;;;;;;7.40;99.90;;;;;;5060086;28;20401;-73
2023/03/26 01:26:02;;;;;;;;;;;7.40;99.90;;;;;;5022350;28;173235;-74
2023/03/26 01:28:30;;;;;;;;;;;7.40;99.90;;;;;;5058443;28;19920;-75
2023/03/26 01:31:02;;;;;;;;;;;7.30;99.90;;;;;;5007674;28;208228;-75
2023/03/26 01:33:35;;;;;;;;;;;7.40;99.90;;;;;;5075727;28;19927;-75
2023/03/26 01:36:07;;;;;;;;;;;7.30;99.90;;;;;;5006463;28;204714;-74
2023/03/26 01:38:34;;;;;;;;;;;7.30;99.90;;;;;;5060631;28;19921;-75
2023/03/26 01:41:06;;;;;;;;;;;7.30;99.90;;;;;;4999449;28;206059;-75
2023/03/26 01:43:38;;;;;;;;;;;7.20;99.90;;;;;;5073925;28;19920;-75
2023/03/26 01:46:06;;;;;;;;;;;7.20;99.90;;;;;;5006974;28;207902;-74
2023/03/26 01:48:35;;;;;;;;;;;7.20;99.90;;;;;;5057283;28;19941;-75
2023/03/26 01:51:01;;;;;;;;;;;7.20;99.90;;;;;;5017606;28;213673;-74
2023/03/26 01:53:27;;;;;;;;;;;7.20;99.90;;;;;;5061985;28;20059;-74
2023/03/26 01:56:12;;;;;;;;;;;7.10;99.90;;;;;;5026126;28;208612;-75
2023/03/26 01:58:45;;;;;;;;;;;7.10;99.90;;;;;;5064771;28;20506;-74
2023/03/26 02:01:18;;;;;;;;;;;7.10;99.90;;;;;;5002374;28;59398;-75
2023/03/26 02:03:48;;;;;;;;;;;7.10;99.90;;;;;;5016234;28;224305;-74
2023/03/26 02:06:29;;;;;;;;;;;7.00;99.90;;;;;;5017704;28;150317;-74
2023/03/26 02:09:00;;;;;;;;;;;6.90;99.90;;;;;;5001364;28;206961;-74
2023/03/26 02:11:26;;;;;;;;;;;6.90;99.90;;;;;;5048463;28;19928;-75
2023/03/26 02:13:52;;;;;;;;;;;6.80;99.90;;;;;;4982303;28;216122;-74
2023/03/26 02:16:18;;;;;;;;;;;6.80;99.90;;;;;;5056622;28;20329;-74
2023/03/26 02:18:46;;;;;;;;;;;6.70;99.90;;;;;;5026659;28;219125;-74
2023/03/26 02:21:20;;;;;;;;;;;6.70;99.90;;;;;;5033123;28;19936;-75
2023/03/26 02:23:48;;;;;;;;;;;6.70;99.90;;;;;;5009148;28;208033;-74
2023/03/26 02:26:16;;;;;;;;;;;6.70;99.90;;;;;;5047152;28;20690;-74
2023/03/26 02:28:42;;;;;;;;;;;6.70;99.90;;;;;;5044946;28;209369;-74
2023/03/26 02:31:09;;;;;;;;;;;6.70;99.90;;;;;;5030462;28;20563;-73
2023/03/26 02:33:35;;;;;;;;;;;6.70;99.90;;;;;;5061833;28;20479;-74
2023/03/26 02:36:02;;;;;;;;;;;6.70;99.90;;;;;;5013746;28;205916;-74
2023/03/26 02:38:29;;;;;;;;;;;6.60;99.90;;;;;;5058296;28;19931;-75
2023/03/26 02:40:55;;;;;;;;;;;6.70;99.90;;;;;;5004160;28;205334;-75
2023/03/26 02:43:21;;;;;;;;;;;6.70;99.90;;;;;;5075594;28;19932;-74
2023/03/26 02:45:46;;;;;;;;;;;6.70;99.90;;;;;;5003568;28;207423;-74
2023/03/26 02:48:14;;;;;;;;;;;6.70;99.90;;;;;;5059742;28;20454;-75
2023/03/26 02:50:40;;;;;;;;;;;6.70;99.90;;;;;;5012793;28;214871;-74
2023/03/26 02:53:06;;;;;;;;;;;6.70;99.90;;;;;;5075062;28;19935;-74
2023/03/26 02:55:32;;;;;;;;;;;6.70;99.90;;;;;;4980943;28;207714;-74
2023/03/26 02:57:58;;;;;;;;;;;6.70;99.90;;;;;;5042621;28;20318;-74
2023/03/26 03:00:24;;;;;;;;;;;6.70;99.90;;;;;;4985900;28;213237;-74
2023/03/26 03:02:51;;;;;;;;;;;6.70;99.90;;;;;;5058556;28;19939;-74
2023/03/26 03:05:17;;;;;;;;;;;6.60;99.90;;;;;;4977129;28;207840;-73
2023/03/26 03:07:45;;;;;;;;;;;6.60;99.90;;;;;;5054932;28;19932;-73
2023/03/26 03:10:12;;;;;;;;;;;6.60;99.90;;;;;;5012201;28;209616;-73
2023/03/26 03:12:39;;;;;;;;;;;6.50;99.90;;;;;;5060415;28;20428;-74
2023/03/26 03:15:05;;;;;;;;;;;6.50;99.90;;;;;;4992883;28;204607;-73
2023/03/26 03:17:31;;;;;;;;;;;6.40;99.90;;;;;;5060492;28;19925;-74
2023/03/26 03:19:57;;;;;;;;;;;6.40;99.90;;;;;;5025533;28;208723;-73
2023/03/26 03:22:23;;;;;;;;;;;6.30;99.90;;;;;;5066632;28;19974;-73
2023/03/26 03:24:50;;;;;;;;;;;6.30;99.90;;;;;;4983922;28;215422;-73
2023/03/26 03:27:19;;;;;;;;;;;6.20;99.90;;;;;;5053441;28;19938;-74
2023/03/26 03:29:45;;;;;;;;;;;6.10;99.90;;;;;;5017649;28;206827;-73
2023/03/26 03:32:11;;;;;;;;;;;6.10;99.90;;;;;;5062615;28;19924;-74
2023/03/26 03:34:41;;;;;;;;;;;6.00;99.90;;;;;;5012761;28;206562;-73
2023/03/26 03:37:07;;;;;;;;;;;6.00;99.90;;;;;;5090136;28;19925;-73
2023/03/26 03:39:33;;;;;;;;;;;6.00;99.90;;;;;;5026952;28;209810;-73
2023/03/26 03:41:59;;;;;;;;;;;5.80;99.90;;;;;;5054701;28;19924;-73
2023/03/26 03:44:26;;;;;;;;;;;5.90;99.90;;;;;;5000164;28;213996;-73
2023/03/26 03:46:54;;;;;;;;;;;5.80;99.90;;;;;;5072053;28;19935;-73
2023/03/26 03:49:20;;;;;;;;;;;5.80;99.90;;;;;;5002420;28;210714;-73
2023/03/26 03:51:46;;;;;;;;;;;5.80;99.90;;;;;;5052542;28;19925;-73
2023/03/26 03:54:12;;;;;;;;;;;5.90;99.90;;;;;;5010322;28;204276;-74
2023/03/26 03:56:38;;;;;;;;;;;5.80;99.90;;;;;;5053705;28;20580;-74
2023/03/26 03:59:04;;;;;;;;;;;5.80;99.90;;;;;;5000925;28;211394;-73
2023/03/26 04:01:30;;;;;;;;;;;5.80;99.90;;;;;;5057196;28;19927;-73
2023/03/26 04:03:57;;;;;;;;;;;5.90;99.90;;;;;;4983800;28;212896;-73
2023/03/26 04:06:24;;;;;;;;;;;5.90;99.90;;;;;;5057222;28;20253;-73
2023/03/26 04:08:50;;;;;;;;;;;5.90;99.90;;;;;;4994946;28;210958;-73
2023/03/26 04:11:16;;;;;;;;;;;5.90;99.90;;;;;;5039162;28;19920;-73
2023/03/26 04:13:42;;;;;;;;;;;6.00;99.90;;;;;;5038422;28;207642;-73
2023/03/26 04:16:09;;;;;;;;;;;5.90;99.90;;;;;;5042816;28;220958;-73
2023/03/26 04:18:36;;;;;;;;;;;6.00;99.90;;;;;;5056766;28;19924;-73
2023/03/26 04:21:04;;;;;;;;;;;6.00;99.90;;;;;;5008075;28;210352;-73
2023/03/26 04:23:30;;;;;;;;;;;6.00;99.90;;;;;;5058564;28;19935;-73
2023/03/26 04:26:02;;;;;;;;;;;6.00;99.90;;;;;;4998098;28;208504;-73
2023/03/26 04:28:34;;;;;;;;;;;6.00;99.90;;;;;;5057737;28;19925;-73
2023/03/26 04:31:02;;;;;;;;;;;6.00;99.90;;;;;;4999018;28;213169;-74
2023/03/26 04:33:29;;;;;;;;;;;6.00;99.90;;;;;;5041991;28;19920;-73
2023/03/26 04:36:00;;;;;;;;;;;6.00;99.90;;;;;;5011151;28;206853;-73
2023/03/26 04:38:27;;;;;;;;;;;6.00;99.90;;;;;;5061654;28;19920;-73
2023/03/26 04:40:52;;;;;;;;;;;6.00;99.90;;;;;;4995847;28;208296;-73
2023/03/26 04:43:18;;;;;;;;;;;6.00;99.90;;;;;;5059871;28;20559;-73
2023/03/26 04:45:46;;;;;;;;;;;6.00;99.90;;;;;;5019741;28;209418;-73
2023/03/26 04:48:13;;;;;;;;;;;6.00;99.90;;;;;;5072662;28;19936;-73
2023/03/26 04:50:40;;;;;;;;;;;6.00;99.90;;;;;;5011031;28;202754;-73
2023/03/26 04:53:09;;;;;;;;;;;6.00;99.90;;;;;;5056404;28;19920;-74
2023/03/26 04:55:44;;;;;;;;;;;6.00;99.90;;;;;;5009720;28;209017;-73
2023/03/26 04:58:12;;;;;;;;;;;5.90;99.90;;;;;;5059796;28;20407;-73
2023/03/26 05:00:39;;;;;;;;;;;5.90;99.90;;;;;;4985620;28;208272;-74
2023/03/26 05:03:08;;;;;;;;;;;5.90;99.90;;;;;;5056759;28;19921;-74
2023/03/26 05:05:34;;;;;;;;;;;5.90;99.90;;;;;;4997859;28;227912;-74
2023/03/26 05:08:00;;;;;;;;;;;5.90;99.90;;;;;;5060425;28;19920;-74
2023/03/26 05:10:26;;;;;;;;;;;5.90;99.90;;;;;;4999660;28;169675;-74
2023/03/26 05:12:52;;;;;;;;;;;5.90;99.90;;;;;;5059855;28;19928;-73
2023/03/26 05:15:18;;;;;;;;;;;5.80;99.90;;;;;;5012738;28;210661;-72
2023/03/26 05:17:45;;;;;;;;;;;5.90;99.90;;;;;;5060223;28;20762;-73
2023/03/26 05:20:15;;;;;;;;;;;5.80;99.90;;;;;;4996977;28;206906;-73
2023/03/26 05:22:42;;;;;;;;;;;5.80;99.90;;;;;;5056308;28;19947;-74
2023/03/26 05:25:08;;;;;;;;;;;5.90;99.90;;;;;;5024098;28;206602;-74
2023/03/26 05:27:34;;;;;;;;;;;5.90;99.90;;;;;;5071823;28;19927;-73
2023/03/26 05:30:01;;;;;;;;;;;5.80;99.90;;;;;;5017649;28;207112;-74
2023/03/26 05:32:27;;;;;;;;;;;5.90;99.90;;;;;;5063095;28;20377;-73
2023/03/26 05:34:52;;;;;;;;;;;5.90;99.90;;;;;;5022085;28;208112;-74
2023/03/26 05:37:23;;;;;;;;;;;5.90;99.90;;;;;;5060151;28;20331;-74
2023/03/26 05:39:53;;;;;;;;;;;5.90;99.90;;;;;;5001947;28;206312;-73
2023/03/26 05:42:20;;;;;;;;;;;5.90;99.90;;;;;;5065075;28;20253;-74
2023/03/26 05:44:46;;;;;;;;;;;5.90;99.90;;;;;;5009836;28;207358;-74
2023/03/26 05:47:12;;;;;;;;;;;6.00;99.90;;;;;;5073206;28;19963;-73
2023/03/26 05:49:38;;;;;;;;;;;6.00;99.90;;;;;;5008209;28;211465;-74
2023/03/26 05:52:04;;;;;;;;;;;6.10;99.90;;;;;;5063770;28;20465;-74
2023/03/26 05:54:30;;;;;;;;;;;6.10;99.90;;;;;;5012704;28;208555;-74
2023/03/26 05:56:56;;;;;;;;;;;6.20;99.90;;;;;;5066778;28;19994;-74
2023/03/26 05:59:22;;;;;;;;;;;6.20;99.90;;;;;;5001794;28;212240;-73
2023/03/26 06:01:49;;;;;;;;;;;6.20;99.90;;;;;;5053035;28;20132;-74
2023/03/26 06:04:16;;;;;;;;;;;6.30;99.90;;;;;;4982924;28;182167;-74
2023/03/26 06:06:43;;;;;;;;;;;6.30;99.90;;;;;;5061860;28;19924;-74
2023/03/26 06:09:12;;;;;;;;;;;6.30;99.90;;;;;;5003503;28;207288;-74
2023/03/26 06:11:38;;;;;;;;;;;6.40;99.90;;;;;;5070223;28;19925;-74
2023/03/26 06:14:04;;;;;;;;;;;6.40;99.90;;;;;;5015669;28;207971;-72
2023/03/26 06:16:30;;;;;;;;;;;6.50;99.90;;;;;;5053469;28;19932;-73
2023/03/26 06:18:56;;;;;;;;;;;6.50;99.90;;;;;;5002958;28;210112;-73
2023/03/26 06:21:22;;;;;;;;;;;6.50;99.90;;;;;;5067499;28;20301;-73
2023/03/26 06:23:48;;;;;;;;;;;6.50;99.90;;;;;;5009962;28;210098;-73
2023/03/26 06:26:15;;;;;;;;;;;6.50;99.90;;;;;;5062008;28;19921;-74
2023/03/26 06:28:40;;;;;;;;;;;6.60;99.90;;;;;;5044107;28;225546;-73
2023/03/26 06:31:06;;;;;;;;;;;6.60;99.90;;;;;;5033762;28;76257;-74
2023/03/26 06:33:32;;;;;;;;;;;6.50;99.90;;;;;;5068422;28;19928;-73
2023/03/26 06:35:58;;;;;;;;;;;6.60;99.90;;;;;;5020640;28;210469;-73
2023/03/26 06:38:24;;;;;;;;;;;6.60;99.90;;;;;;5059597;28;19924;-73
2023/03/26 06:40:50;;;;;;;;;;;6.60;99.90;;;;;;4989565;28;207023;-74
2023/03/26 06:43:16;;;;;;;;;;;6.60;99.90;;;;;;5066375;28;20009;-74
2023/03/26 06:45:42;;;;;;;;;;;6.60;99.90;;;;;;5022585;28;218672;-73
2023/03/26 06:48:08;;;;;;;;;;;6.70;99.90;;;;;;5065440;28;19935;-74
2023/03/26 06:50:34;;;;;;;;;;;6.60;99.90;;;;;;5025153;28;96255;-74
2023/03/26 06:53:00;;;;;;;;;;;6.60;99.90;;;;;;5069722;28;19977;-74
2023/03/26 06:55:26;;;;;;;;;;;6.60;99.90;;;;;;5017584;28;209409;-75
2023/03/26 06:57:53;;;;;;;;;;;6.60;99.90;;;;;;5063630;28;20010;-73
2023/03/26 07:00:19;;;;;;;;;;;6.70;99.90;;;;;;5011839;28;211087;-73
2023/03/26 07:02:45;;;;;;;;;;;6.80;99.90;;;;;;5045041;28;19939;-74
2023/03/26 07:05:11;;;;;;;;;;;6.90;99.90;;;;;;4959380;28;216363;-74
2023/03/26 07:07:37;;;;;;;;;;;7.00;99.90;;;;;;5059159;28;19959;-73
2023/03/26 07:10:04;;;;;;;;;;;7.20;99.90;;;;;;5013318;28;219269;-73
2023/03/26 07:12:30;;;;;;;;;;;7.20;99.90;;;;;;5043194;28;19928;-74
2023/03/26 07:14:56;;;;;;;;;;;7.30;99.90;;;;;;5015663;28;206116;-73
2023/03/26 07:17:22;;;;;;;;;;;7.40;99.90;;;;;;5065485;28;19924;-73
2023/03/26 07:19:48;;;;;;;;;;;7.40;99.90;;;;;;5006528;28;205958;-74
2023/03/26 07:22:18;;;;;;;;;;;7.50;99.90;;;;;;5055405;28;19925;-73
2023/03/26 07:24:44;;;;;;;;;;;7.40;99.90;;;;;;5011637;28;205598;-74
2023/03/26 07:27:19;;;;;;;;;;;7.50;99.90;;;;;;5052131;28;19920;-73
2023/03/26 07:29:55;;;;;;;;;;;7.60;99.90;;;;;;5006079;28;204365;-73
2023/03/26 07:32:29;;;;;;;;;;;7.70;99.90;;;;;;5036155;28;20409;-74
2023/03/26 07:34:55;;;;;;;;;;;7.70;99.90;;;;;;4975272;28;210157;-74
2023/03/26 07:37:21;;;;;;;;;;;7.70;99.90;;;;;;5038261;28;20316;-75
2023/03/26 07:39:57;;;;;;;;;;;7.70;99.90;;;;;;5002930;28;206519;-74
2023/03/26 07:42:41;;;;;;;;;;;7.80;99.90;;;;;;5058677;28;19951;-74
2023/03/26 07:45:15;;;;;;;;;;;7.90;99.90;;;;;;5004360;28;204018;-72
2023/03/26 07:47:43;;;;;;;;;;;7.90;99.90;;;;;;5057292;28;19943;-75
2023/03/26 07:50:14;;;;;;;;;;;8.00;99.90;;;;;;5011542;28;207057;-75
2023/03/26 07:52:40;;;;;;;;;;;8.00;99.90;;;;;;5061459;28;19939;-74
2023/03/26 07:55:06;;;;;;;;;;;8.00;99.90;;;;;;5017481;28;207006;-74
2023/03/26 07:57:46;;;;;;;;;;;7.90;99.90;;;;;;5060089;28;19920;-74
2023/03/26 08:00:44;;;;;;;;;;;7.90;99.90;;;;;;5017227;28;209805;-74
2023/03/26 08:03:23;;;;;;;;;;;7.90;99.90;;;;;;5014772;28;20432;-74
2023/03/26 08:05:52;;;;;;;;;;;7.90;99.90;;;;;;4992585;28;207909;-74
2023/03/26 08:08:27;;;;;;;;;;;7.90;99.90;;;;;;5041491;28;19921;-74
2023/03/26 08:11:06;;;;;;;;;;;8.00;99.90;;;;;;5022689;28;207155;-74
2023/03/26 08:13:46;;;;;;;;;;;8.20;99.90;;;;;;5068636;28;19927;-73
2023/03/26 08:16:23;;;;;;;;;;;8.30;99.90;;;;;;4994768;28;188348;-73
2023/03/26 08:19:06;;;;;;;;;;;8.40;99.90;;;;;;5007253;28;208841;-72
2023/03/26 08:21:36;;;;;;;;;;;8.50;99.90;;;;;;5076377;28;19924;-74
2023/03/26 08:24:18;;;;;;;;;;;8.60;99.90;;;;;;5012117;28;209576;-73
2023/03/26 08:26:47;;;;;;;;;;;8.50;99.90;;;;;;5058945;28;19928;-73
2023/03/26 08:29:35;;;;;;;;;;;8.60;99.90;;;;;;5013071;28;215766;-73
2023/03/26 08:32:02;;;;;;;;;;;8.70;99.90;;;;;;5060228;28;19924;-73
2023/03/26 08:34:28;;;;;;;;;;;8.70;99.90;;;;;;5026765;28;96259;-73
2023/03/26 08:36:54;;;;;;;;;;;8.80;99.90;;;;;;5061701;28;20301;-73
2023/03/26 08:39:21;;;;;;;;;;;8.70;99.90;;;;;;5025031;28;207490;-73
2023/03/26 08:42:16;;;;;;;;;;;8.70;99.90;;;;;;5066460;28;19944;-73
2023/03/26 08:45:02;;;;;;;;;;;8.70;99.90;;;;;;5027948;28;206795;-73
2023/03/26 08:47:46;;;;;;;;;;;8.80;99.90;;;;;;5083063;28;20378;-73
2023/03/26 08:50:31;;;;;;;;;;;9.00;99.90;;;;;;5034357;28;202533;-73
2023/03/26 08:53:00;;;;;;;;;;;9.10;99.90;;;;;;5070676;28;19931;-73
2023/03/26 08:55:29;;;;;;;;;;;8.70;99.90;;;;;;4999888;28;217710;-73
2023/03/26 08:58:04;;;;;;;;;;;8.70;99.90;;;;;;5059900;28;19928;-73
2023/03/26 09:00:38;;;;;;;;;;;8.70;99.90;;;;;;5021322;28;207046;-73
2023/03/26 09:03:07;;;;;;;;;;;8.80;99.90;;;;;;5067424;28;20462;-73
2023/03/26 09:05:53;;;;;;;;;;;8.80;99.90;;;;;;5003729;28;205597;-73
2023/03/26 09:08:38;;;;;;;;;;;8.90;99.90;;;;;;5061326;28;19921;-73
2023/03/26 09:11:22;;;;;;;;;;;9.00;99.90;;;;;;4998309;28;207347;-73
2023/03/26 09:14:09;;;;;;;;;;;9.10;99.90;;;;;;5005779;28;206827;-72
2023/03/26 09:16:52;;;;;;;;;;;9.10;99.90;;;;;;5053630;28;19936;-73
2023/03/26 09:19:41;;;;;;;;;;;9.10;99.90;;;;;;5032895;28;177025;-73
2023/03/26 09:22:29;;;;;;;;;;;9.10;99.90;;;;;;5069569;28;19936;-73
2023/03/26 09:25:13;;;;;;;;;;;9.30;99.90;;;;;;5007475;28;207792;-73
2023/03/26 09:27:51;;;;;;;;;;;9.60;99.90;;;;;;5067926;28;19935;-72
2023/03/26 09:30:20;;;;;;;;;;;9.80;99.90;;;;;;5021835;28;207642;-72
2023/03/26 09:33:15;;;;;;;;;;;9.90;99.90;;;;;;5059726;28;19921;-72
2023/03/26 09:35:50;;;;;;;;;;;9.80;99.90;;;;;;5007305;28;210463;-72
2023/03/26 09:38:28;;;;;;;;;;;10.00;99.90;;;;;;5069993;28;19920;-72
2023/03/26 09:41:01;;;;;;;;;;;10.20;99.90;;;;;;5022481;28;208538;-72
2023/03/26 09:43:35;;;;;;;;;;;10.40;99.90;;;;;;5063716;28;19925;-72
2023/03/26 09:46:01;;;;;;;;;;;10.70;99.90;;;;;;5033226;28;112193;-72
2023/03/26 09:48:46;;;;;;;;;;;10.90;99.90;;;;;;5062819;28;20564;-72
2023/03/26 09:51:19;;;;;;;;;;;11.10;99.90;;;;;;4980379;28;209048;-72
2023/03/26 09:53:49;;;;;;;;;;;11.10;99.90;;;;;;5025349;28;208411;-69
2023/03/26 09:56:24;;;;;;;;;;;11.00;99.90;;;;;;5063617;28;19924;-72
2023/03/26 09:58:59;;;;;;;;;;;10.80;99.90;;;;;;5013779;28;207247;-71
2023/03/26 10:01:40;;;;;;;;;;;10.60;99.90;;;;;;5068552;28;20904;-71
2023/03/26 10:04:12;;;;;;;;;;;10.50;99.90;;;;;;4956845;28;1411354;-71
2023/03/26 10:06:58;;;;;;;;;;;10.40;99.90;;;;;;5030829;28;19928;-69
2023/03/26 10:09:31;;;;;;;;;;;10.30;99.90;;;;;;5005832;28;214484;-69
2023/03/26 10:12:15;;;;;;;;;;;9.90;99.90;;;;;;5063317;28;19929;-72
2023/03/26 10:14:46;;;;;;;;;;;10.00;99.90;;;;;;5003630;28;162576;-70
2023/03/26 10:17:21;;;;;;;;;;;10.20;99.90;;;;;;5057931;28;19929;-69
2023/03/26 10:20:08;;;;;;;;;;;10.20;99.90;;;;;;5011471;28;211689;-69
2023/03/26 10:22:51;;;;;;;;;;;10.20;99.90;;;;;;5064063;28;20412;-70
2023/03/26 10:25:17;;;;;;;;;;;10.20;99.90;;;;;;4989339;28;215347;-70
2023/03/26 10:27:49;;;;;;;;;;;10.20;99.90;;;;;;5054181;28;19939;-69
2023/03/26 10:30:21;;;;;;;;;;;10.40;99.90;;;;;;5015574;28;213794;-69
2023/03/26 10:32:55;;;;;;;;;;;10.30;99.90;;;;;;5060950;28;19921;-70
2023/03/26 10:35:25;;;;;;;;;;;10.20;99.90;;;;;;5013167;28;210091;-69
2023/03/26 10:38:00;;;;;;;;;;;10.10;99.90;;;;;;5060068;28;19925;-69
2023/03/26 10:40:31;;;;;;;;;;;10.10;99.90;;;;;;5003617;28;209568;-70
2023/03/26 10:43:18;;;;;;;;;;;10.20;99.90;;;;;;5060651;28;19928;-69
2023/03/26 10:45:47;;;;;;;;;;;10.30;99.90;;;;;;5013129;28;206591;-69
2023/03/26 10:48:15;;;;;;;;;;;10.30;99.90;;;;;;5059800;28;19935;-70
2023/03/26 10:50:41;;;;;;;;;;;10.30;99.90;;;;;;5011709;28;228069;-69
2023/03/26 10:53:30;;;;;;;;;;;10.40;99.90;;;;;;5065383;28;19924;-70
2023/03/26 10:56:19;;;;;;;;;;;10.50;99.90;;;;;;5018661;28;208239;-69
2023/03/26 10:58:46;;;;;;;;;;;10.40;99.90;;;;;;5023686;28;206230;-69
2023/03/26 11:01:35;;;;;;;;;;;10.20;99.90;;;;;;5059807;28;19920;-70
2023/03/26 11:04:07;;;;;;;;;;;10.10;99.90;;;;;;4975035;28;206034;-70
2023/03/26 11:06:33;;;;;;;;;;;10.00;99.90;;;;;;5040514;28;20282;-67
2023/03/26 11:09:18;;;;;;;;;;;9.90;99.90;;;;;;4982443;28;212607;-69
2023/03/26 11:11:47;;;;;;;;;;;9.80;99.90;;;;;;5037776;28;20409;-67
2023/03/26 11:14:15;;;;;;;;;;;9.70;99.90;;;;;;4977674;28;212399;-69
2023/03/26 11:16:56;;;;;;;;;;;9.90;99.90;;;;;;5035514;28;19946;-68
2023/03/26 11:19:40;;;;;;;;;;;9.80;99.90;;;;;;4995312;28;212241;-68
2023/03/26 11:22:28;;;;;;;;;;;10.00;99.90;;;;;;5025339;28;19925;-67
2023/03/26 11:25:05;;;;;;;;;;;9.90;99.90;;;;;;4984624;28;147463;-68
2023/03/26 11:27:37;;;;;;;;;;;9.90;99.90;;;;;;5052825;28;19924;-69
2023/03/26 11:30:15;;;;;;;;;;;9.90;99.90;;;;;;4971174;28;207435;-68
2023/03/26 11:32:43;;;;;;;;;;;10.00;99.90;;;;;;5045905;28;19931;-70
2023/03/26 11:35:25;;;;;;;;;;;10.10;99.90;;;;;;5005407;28;207665;-69
2023/03/26 11:37:52;;;;;;;;;;;10.20;99.90;;;;;;5055979;28;19929;-69
2023/03/26 11:40:24;;;;;;;;;;;10.20;99.90;;;;;;5001556;28;207108;-68
2023/03/26 11:42:53;;;;;;;;;;;10.20;99.90;;;;;;5063188;28;19921;-69
2023/03/26 11:45:21;;;;;;;;;;;10.10;99.60;;;;;;5016313;28;203503;-68
2023/03/26 11:47:50;;;;;;;;;;;10.00;99.70;;;;;;5054884;28;19928;-69
2023/03/26 11:50:22;;;;;;;;;;;9.80;99.40;;;;;;5015918;28;208099;-67
2023/03/26 11:52:48;;;;;;;;;;;10.00;99.90;;;;;;5062284;28;20430;-67
2023/03/26 11:55:14;;;;;;;;;;;10.20;99.90;;;;;;5006263;28;212136;-67
2023/03/26 11:57:44;;;;;;;;;;;10.20;99.60;;;;;;5059590;28;19935;-69
2023/03/26 12:00:16;;;;;;;;;;;10.40;99.90;;;;;;4997384;28;228067;-68
2023/03/26 12:02:42;;;;;;;;;;;10.40;99.90;;;;;;5050967;28;19928;-68
2023/03/26 12:05:10;;;;;;;;;;;10.60;99.70;;;;;;4990436;28;241551;-68
2023/03/26 12:07:41;;;;;;;;;;;10.60;99.00;;;;;;5055274;28;19920;-67
2023/03/26 12:10:19;;;;;;;;;;;10.30;98.80;;;;;;5011609;28;209231;-67
2023/03/26 12:12:46;;;;;;;;;;;10.30;98.80;;;;;;5054740;28;19925;-68
2023/03/26 12:15:15;;;;;;;;;;;10.30;99.00;;;;;;5010702;28;209704;-69
2023/03/26 12:17:42;;;;;;;;;;;10.20;99.50;;;;;;5055726;28;19928;-68
2023/03/26 12:20:28;;;;;;;;;;;10.30;99.40;;;;;;5008924;28;223614;-69
2023/03/26 12:22:58;;;;;;;;;;;10.20;99.00;;;;;;5032674;28;19935;-69
2023/03/26 12:25:28;;;;;;;;;;;10.10;99.00;;;;;;5018067;28;219868;-68
2023/03/26 12:28:03;;;;;;;;;;;10.10;99.20;;;;;;5055373;28;19924;-67
2023/03/26 12:30:33;;;;;;;;;;;10.10;98.90;;;;;;4981975;28;207951;-68
2023/03/26 12:33:02;;;;;;;;;;;9.90;99.00;;;;;;5049659;28;20496;-68
2023/03/26 12:35:32;;;;;;;;;;;9.90;99.40;;;;;;4996833;28;104151;-70
2023/03/26 12:38:13;;;;;;;;;;;10.00;99.10;;;;;;5051193;28;19924;-71
2023/03/26 12:40:41;;;;;;;;;;;9.80;99.30;;;;;;4998923;28;219815;-71
2023/03/26 12:43:27;;;;;;;;;;;9.90;99.60;;;;;;5062586;28;19931;-70
2023/03/26 12:45:54;;;;;;;;;;;9.80;99.30;;;;;;4999026;28;208997;-69
2023/03/26 12:48:24;;;;;;;;;;;9.80;99.30;;;;;;5059799;28;19947;-71
2023/03/26 12:51:09;;;;;;;;;;;9.80;99.10;;;;;;5007575;28;208124;-72
2023/03/26 12:53:49;;;;;;;;;;;9.90;99.10;;;;;;5057392;28;19935;-75
2023/03/26 12:56:38;;;;;;;;;;;9.90;98.70;;;;;;5012920;28;19927;-73
2023/03/26 12:59:13;;;;;;;;;;;10.10;99.10;;;;;;5005170;28;206516;-71
2023/03/26 13:01:42;;;;;;;;;;;10.30;98.80;;;;;;5054909;28;19924;-72
2023/03/26 13:04:11;;;;;;;;;;;10.60;99.10;;;;;;4990020;28;213190;-71
2023/03/26 13:06:49;;;;;;;;;;;11.00;98.70;;;;;;5042193;28;19943;-72
2023/03/26 13:09:34;;;;;;;;;;;10.90;97.30;;;;;;5009070;28;208704;-72
2023/03/26 13:12:10;;;;;;;;;;;10.70;97.70;;;;;;5053851;28;19925;-73
2023/03/26 13:14:44;;;;;;;;;;;10.70;98.10;;;;;;5002612;28;229677;-72
2023/03/26 13:17:22;;;;;;;;;;;10.60;98.40;;;;;;5053449;28;19933;-72
2023/03/26 13:19:54;;;;;;;;;;;10.20;97.90;;;;;;4998946;28;208380;-73
2023/03/26 13:22:44;;;;;;;;;;;9.80;97.50;;;;;;5065034;28;20289;-72
2023/03/26 13:25:13;;;;;;;;;;;9.70;98.00;;;;;;5014492;28;208478;-75
2023/03/26 13:27:42;;;;;;;;;;;9.50;98.00;;;;;;5048390;28;21874;-73
2023/03/26 13:30:10;;;;;;;;;;;9.50;98.20;;;;;;5010818;28;218476;-74
2023/03/26 13:32:49;;;;;;;;;;;9.30;98.10;;;;;;5064319;28;19938;-73
2023/03/26 13:35:26;;;;;;;;;;;9.60;98.60;;;;;;5019842;28;207921;-72
2023/03/26 13:37:52;;;;;;;;;;;10.00;98.40;;;;;;5055934;28;19932;-73
2023/03/26 13:40:23;;;;;;;;;;;10.20;98.40;;;;;;5008476;28;207945;-73
2023/03/26 13:42:52;;;;;;;;;;;10.80;97.20;;;;;;5061120;28;19936;-72
2023/03/26 13:45:25;;;;;;;;;;;11.20;97.00;;;;;;5000417;28;206961;-73
2023/03/26 13:47:53;;;;;;;;;;;12.10;96.40;;;;;;5061658;28;19925;-73
2023/03/26 13:50:27;;;;;;;;;;;12.40;95.90;;;;;;4984336;28;189543;-72
2023/03/26 13:53:15;;;;;;;;;;;12.70;95.40;;;;;;5061792;28;19921;-73
2023/03/26 13:55:46;;;;;;;;;;;12.30;95.80;;;;;;5013827;28;207203;-72
2023/03/26 13:58:14;;;;;;;;;;;11.80;95.70;;;;;;5066077;28;20304;-72
2023/03/26 14:00:52;;;;;;;;;;;11.50;96.00;;;;;;5010434;28;208226;-72
2023/03/26 14:03:25;;;;;;;;;;;10.80;95.50;;;;;;5063152;28;19921;-72
2023/03/26 14:05:54;;;;;;;;;;;10.70;96.50;;;;;;5011840;28;208179;-72
2023/03/26 14:08:28;;;;;;;;;;;10.20;96.50;;;;;;5062415;28;19920;-72
2023/03/26 14:10:58;;;;;;;;;;;10.00;96.60;;;;;;5003746;28;168119;-72
2023/03/26 14:13:44;;;;;;;;;;;9.70;97.00;;;;;;5078827;28;19943;-72
2023/03/26 14:16:19;;;;;;;;;;;9.40;97.60;;;;;;4985564;28;25578;-72
2023/03/26 14:18:45;;;;;;;;;;;9.60;97.90;;;;;;5008347;28;207088;-71
2023/03/26 14:21:31;;;;;;;;;;;9.50;97.90;;;;;;5025268;28;19963;-72
2023/03/26 14:24:03;;;;;;;;;;;9.50;98.10;;;;;;5006428;28;207460;-72
2023/03/26 14:26:46;;;;;;;;;;;9.40;97.90;;;;;;5075545;28;20372;-72
2023/03/26 14:29:29;;;;;;;;;;;9.20;98.20;;;;;;4999399;28;207776;-73
2023/03/26 14:32:14;;;;;;;;;;;9.10;98.10;;;;;;5065279;28;20404;-73
2023/03/26 14:34:44;;;;;;;;;;;9.00;97.80;;;;;;4998985;28;207472;-71
2023/03/26 14:37:13;;;;;;;;;;;8.80;97.70;;;;;;5035937;28;19932;-71
2023/03/26 14:39:38;;;;;;;;;;;8.80;97.50;;;;;;4997322;28;209450;-72
2023/03/26 14:42:05;;;;;;;;;;;8.90;97.50;;;;;;5055560;28;19953;-72
2023/03/26 14:44:43;;;;;;;;;;;10.80;97.40;;;;;;5018070;28;209512;-72